Time;durP1;ratioP1;P1;durP2;ratioP2;P2;SDS_P1;SDS_P2;PMS_P1;PMS_P2;Temp;Humidity;BMP_temperature;BMP_pressure;BME280_temperature;BME280_humidity;BME280_pressure;Samples;Min_cycle;Max_cycle;Signal;HPM_P1;HPM_P2
2022/06/23 00:02:38;;;;;;;;;;;21.50;69.20;;;;;;5034238;28;19979;-55
2022/06/23 00:05:24;;;;;;;;;;;21.50;69.10;;;;;;5033535;28;19920;-52
2022/06/23 00:08:10;;;;;;;;;;;21.40;68.60;;;;;;5028223;28;19920;-52
2022/06/23 00:10:59;;;;;;;;;;;21.40;68.20;;;;;;5034483;28;19920;-53
2022/06/23 00:13:44;;;;;;;;;;;21.40;67.70;;;;;;5034567;28;19913;-49
2022/06/23 00:16:28;;;;;;;;;;;21.50;68.00;;;;;;5018779;28;19920;-55
2022/06/23 00:19:14;;;;;;;;;;;21.40;68.60;;;;;;5034162;28;19927;-55
2022/06/23 00:21:58;;;;;;;;;;;21.30;70.10;;;;;;5034193;28;19971;-52
2022/06/23 00:24:42;;;;;;;;;;;21.20;69.60;;;;;;5014924;28;19920;-53
2022/06/23 00:27:31;;;;;;;;;;;21.20;69.60;;;;;;5030147;28;19916;-51
2022/06/23 00:30:21;;;;;;;;;;;21.20;70.50;;;;;;5034171;28;19958;-51
2022/06/23 00:33:06;;;;;;;;;;;21.20;71.50;;;;;;5019619;28;20097;-49
2022/06/23 00:35:51;;;;;;;;;;;21.20;72.50;;;;;;5031881;28;19981;-49
2022/06/23 00:38:38;;;;;;;;;;;21.10;73.10;;;;;;5032467;28;19975;-50
2022/06/23 00:41:26;;;;;;;;;;;21.10;74.20;;;;;;5033308;28;20263;-51
2022/06/23 00:44:15;;;;;;;;;;;21.00;74.90;;;;;;5048716;28;20046;-50
2022/06/23 00:47:01;;;;;;;;;;;21.00;75.50;;;;;;5041518;28;19919;-54
2022/06/23 00:49:51;;;;;;;;;;;20.90;76.70;;;;;;5052214;28;20000;-53
2022/06/23 00:52:47;;;;;;;;;;;20.90;77.00;;;;;;5041284;28;20471;-52
2022/06/23 00:55:34;;;;;;;;;;;20.90;77.20;;;;;;5034244;28;20276;-51
2022/06/23 00:58:27;;;;;;;;;;;20.80;78.00;;;;;;5032956;28;20314;-54
2022/06/23 01:01:21;;;;;;;;;;;20.70;77.80;;;;;;5033079;28;19916;-50
2022/06/23 01:04:05;;;;;;;;;;;20.70;77.20;;;;;;5033954;28;19916;-50
2022/06/23 01:07:13;;;;;;;;;;;20.60;78.20;;;;;;5033155;28;20280;-50
2022/06/23 01:09:57;;;;;;;;;;;20.50;78.40;;;;;;5012950;28;19912;-49
2022/06/23 01:12:59;;;;;;;;;;;20.40;79.70;;;;;;5032684;28;19915;-52
2022/06/23 01:15:56;;;;;;;;;;;20.40;80.20;;;;;;5033339;28;19962;-51
2022/06/23 01:18:57;;;;;;;;;;;20.20;81.10;;;;;;5032801;28;20430;-50
2022/06/23 01:21:47;;;;;;;;;;;20.20;82.00;;;;;;5031897;28;19959;-53
2022/06/23 01:24:38;;;;;;;;;;;20.10;81.90;;;;;;5033606;28;19916;-52
2022/06/23 01:27:27;;;;;;;;;;;20.00;82.70;;;;;;5034487;28;19916;-53
2022/06/23 01:30:12;;;;;;;;;;;19.50;81.30;;;;;;5033201;28;19963;-51
2022/06/23 01:33:02;;;;;;;;;;;19.40;79.30;;;;;;5037741;28;20295;-51
2022/06/23 01:35:58;;;;;;;;;;;19.30;80.30;;;;;;5050719;28;19924;-52
2022/06/23 01:38:46;;;;;;;;;;;19.30;80.20;;;;;;5033904;28;19920;-54
2022/06/23 01:41:42;;;;;;;;;;;19.10;79.30;;;;;;5032892;28;19916;-51
2022/06/23 01:44:42;;;;;;;;;;;19.10;79.60;;;;;;5032134;28;19943;-52
2022/06/23 01:47:45;;;;;;;;;;;19.00;80.20;;;;;;5033624;28;19935;-48
2022/06/23 01:50:48;;;;;;;;;;;19.00;80.70;;;;;;5032931;28;19998;-52
2022/06/23 01:53:34;;;;;;;;;;;19.00;80.30;;;;;;5033018;28;20421;-50
2022/06/23 01:56:26;;;;;;;;;;;19.00;80.30;;;;;;5033364;28;19962;-51
2022/06/23 01:59:10;;;;;;;;;;;19.10;80.00;;;;;;5033100;28;19916;-54
2022/06/23 02:02:10;;;;;;;;;;;19.00;80.20;;;;;;5033472;28;20427;-56
2022/06/23 02:05:03;;;;;;;;;;;18.80;81.40;;;;;;5033051;28;19920;-51
2022/06/23 02:08:05;;;;;;;;;;;18.80;82.00;;;;;;5032934;28;19912;-49
2022/06/23 02:10:49;;;;;;;;;;;18.90;81.70;;;;;;5033399;28;19955;-53
2022/06/23 02:13:50;;;;;;;;;;;18.90;81.10;;;;;;5032312;28;19912;-49
2022/06/23 02:16:45;;;;;;;;;;;18.90;81.00;;;;;;5012643;28;19959;-52
2022/06/23 02:19:50;;;;;;;;;;;18.90;81.10;;;;;;5020550;28;20279;-54
2022/06/23 02:22:40;;;;;;;;;;;19.00;80.50;;;;;;5032813;28;20276;-52
2022/06/23 02:25:31;;;;;;;;;;;18.90;81.00;;;;;;5031923;28;19963;-50
2022/06/23 02:28:35;;;;;;;;;;;18.80;81.60;;;;;;5032161;28;19921;-47
2022/06/23 02:31:24;;;;;;;;;;;18.70;81.80;;;;;;5033086;28;19976;-54
2022/06/23 02:34:13;;;;;;;;;;;18.70;81.40;;;;;;5033960;28;19912;-52
2022/06/23 02:37:05;;;;;;;;;;;18.40;82.30;;;;;;5033085;28;19920;-49
2022/06/23 02:39:51;;;;;;;;;;;18.20;83.00;;;;;;5032322;28;19912;-49
2022/06/23 02:42:37;;;;;;;;;;;18.30;83.20;;;;;;5033134;28;20319;-49
2022/06/23 02:45:24;;;;;;;;;;;18.40;83.20;;;;;;5037042;28;19967;-50
2022/06/23 02:48:27;;;;;;;;;;;18.30;83.70;;;;;;5027924;28;20450;-54
2022/06/23 02:51:37;;;;;;;;;;;18.50;83.20;;;;;;5036043;28;19912;-48
2022/06/23 02:54:41;;;;;;;;;;;18.50;82.90;;;;;;5036862;28;20422;-47
2022/06/23 02:57:25;;;;;;;;;;;18.60;83.30;;;;;;5035790;28;19963;-50
2022/06/23 03:00:09;;;;;;;;;;;18.50;83.60;;;;;;5036849;28;19912;-53
2022/06/23 03:02:59;;;;;;;;;;;18.40;83.90;;;;;;5036511;28;20005;-51
2022/06/23 03:05:48;;;;;;;;;;;18.30;84.00;;;;;;5035868;28;19916;-49
2022/06/23 03:08:38;;;;;;;;;;;18.10;85.00;;;;;;5037495;28;20379;-49
2022/06/23 03:14:28;;;;;;;;;;;18.10;85.40;;;;;;5040500;28;20314;-53
2022/06/23 03:17:19;;;;;;;;;;;18.20;85.20;;;;;;5036376;28;19983;-52
2022/06/23 03:20:03;;;;;;;;;;;18.30;85.30;;;;;;5033334;28;19922;-54
2022/06/23 03:22:57;;;;;;;;;;;18.40;85.20;;;;;;5035311;28;19915;-52
2022/06/23 03:26:01;;;;;;;;;;;18.40;84.50;;;;;;5035002;28;19935;-47
2022/06/23 03:28:48;;;;;;;;;;;18.40;84.30;;;;;;5035969;28;19916;-47
2022/06/23 03:31:56;;;;;;;;;;;18.30;84.30;;;;;;5035801;28;19959;-49
2022/06/23 03:34:46;;;;;;;;;;;18.20;84.80;;;;;;5014938;28;19992;-52
2022/06/23 03:37:41;;;;;;;;;;;18.30;84.40;;;;;;5019999;28;19919;-49
2022/06/23 03:43:58;;;;;;;;;;;18.40;85.00;;;;;;5040527;28;19975;-49
2022/06/23 03:46:49;;;;;;;;;;;18.50;84.60;;;;;;5049547;28;19916;-49
2022/06/23 03:49:38;;;;;;;;;;;18.40;84.90;;;;;;5035646;28;19912;-49
2022/06/23 03:52:44;;;;;;;;;;;18.40;83.60;;;;;;5035855;28;20428;-51
2022/06/23 03:55:31;;;;;;;;;;;18.50;84.20;;;;;;5020597;28;19988;-50
2022/06/23 03:58:22;;;;;;;;;;;18.50;84.60;;;;;;5034759;28;19962;-49
2022/06/23 04:01:14;;;;;;;;;;;18.50;85.00;;;;;;5034749;28;19962;-50
2022/06/23 04:04:12;;;;;;;;;;;18.50;85.10;;;;;;5035034;28;19951;-48
2022/06/23 04:06:56;;;;;;;;;;;18.50;85.10;;;;;;5034513;28;19971;-48
2022/06/23 04:09:40;;;;;;;;;;;18.50;84.60;;;;;;5034002;28;19967;-53
2022/06/23 04:12:25;;;;;;;;;;;18.60;85.40;;;;;;5027022;28;20003;-51
2022/06/23 04:15:17;;;;;;;;;;;18.60;85.30;;;;;;5035481;28;19912;-49
2022/06/23 04:18:04;;;;;;;;;;;18.60;84.80;;;;;;5027968;28;19916;-55
2022/06/23 04:20:54;;;;;;;;;;;18.60;84.40;;;;;;5033579;28;19966;-53
2022/06/23 04:23:42;;;;;;;;;;;18.60;84.30;;;;;;5021147;28;19915;-54
2022/06/23 04:26:29;;;;;;;;;;;18.60;84.20;;;;;;5024504;28;19935;-51
2022/06/23 04:29:20;;;;;;;;;;;18.60;84.70;;;;;;5033839;28;19971;-51
2022/06/23 04:32:10;;;;;;;;;;;18.60;84.90;;;;;;5034127;28;19963;-53
2022/06/23 04:35:03;;;;;;;;;;;18.60;85.30;;;;;;5015300;28;20380;-50
2022/06/23 04:37:50;;;;;;;;;;;18.70;85.10;;;;;;5027707;28;19919;-51
2022/06/23 04:40:48;;;;;;;;;;;18.80;85.30;;;;;;5030243;28;19928;-51
2022/06/23 04:43:35;;;;;;;;;;;18.70;85.40;;;;;;5033456;28;20367;-52
2022/06/23 04:46:26;;;;;;;;;;;18.60;86.00;;;;;;5033182;28;19971;-50
2022/06/23 04:49:24;;;;;;;;;;;18.50;86.10;;;;;;5031754;28;19911;-52
2022/06/23 04:52:12;;;;;;;;;;;18.30;86.70;;;;;;5053039;28;20287;-50
2022/06/23 04:55:00;;;;;;;;;;;18.40;86.60;;;;;;5053854;28;19969;-47
2022/06/23 04:57:56;;;;;;;;;;;18.60;86.50;;;;;;5040731;28;19963;-50
2022/06/23 05:00:43;;;;;;;;;;;18.60;86.60;;;;;;5033319;28;20379;-54
2022/06/23 05:03:37;;;;;;;;;;;18.70;86.40;;;;;;5033769;28;19931;-52
2022/06/23 05:06:24;;;;;;;;;;;18.90;86.00;;;;;;5032984;28;19956;-52
2022/06/23 05:09:21;;;;;;;;;;;18.90;85.70;;;;;;5034213;28;19932;-52
2022/06/23 05:12:14;;;;;;;;;;;19.00;85.80;;;;;;5033770;28;19990;-52
2022/06/23 05:15:34;;;;;;;;;;;19.20;86.30;;;;;;5033170;28;19958;-54
2022/06/23 05:18:23;;;;;;;;;;;19.20;85.60;;;;;;4964788;28;19932;-49
2022/06/23 05:21:10;;;;;;;;;;;19.30;85.20;;;;;;5027210;28;19967;-48
2022/06/23 05:23:59;;;;;;;;;;;19.30;85.50;;;;;;5032157;28;19916;-51
2022/06/23 05:26:46;;;;;;;;;;;19.30;85.20;;;;;;5034913;28;19920;-49
2022/06/23 05:29:34;;;;;;;;;;;19.40;85.40;;;;;;5031965;28;20012;-50
2022/06/23 05:32:31;;;;;;;;;;;19.40;85.50;;;;;;5022302;28;19916;-52
2022/06/23 05:35:15;;;;;;;;;;;19.50;85.60;;;;;;5013234;28;19912;-53
2022/06/23 05:38:03;;;;;;;;;;;19.60;85.40;;;;;;5032437;28;20331;-54
2022/06/23 05:40:47;;;;;;;;;;;19.70;85.50;;;;;;5033085;28;19919;-53
2022/06/23 05:43:34;;;;;;;;;;;19.70;85.40;;;;;;5031289;28;19912;-51
2022/06/23 05:46:23;;;;;;;;;;;19.70;85.50;;;;;;5025698;28;19933;-52
2022/06/23 05:49:16;;;;;;;;;;;19.90;85.30;;;;;;5036986;28;19971;-52
2022/06/23 05:52:04;;;;;;;;;;;20.00;84.80;;;;;;5024685;28;20013;-50
2022/06/23 05:54:52;;;;;;;;;;;19.90;84.80;;;;;;5052948;28;19995;-52
2022/06/23 05:57:43;;;;;;;;;;;20.10;84.80;;;;;;5029820;28;20411;-50
2022/06/23 06:00:27;;;;;;;;;;;20.10;84.80;;;;;;5030785;28;19924;-54
2022/06/23 06:03:21;;;;;;;;;;;20.20;84.60;;;;;;5031253;28;20382;-54
2022/06/23 06:06:06;;;;;;;;;;;20.30;84.40;;;;;;5031857;28;20425;-51
2022/06/23 06:11:57;;;;;;;;;;;20.50;83.90;;;;;;5032544;28;19979;-48
2022/06/23 06:14:44;;;;;;;;;;;20.60;83.40;;;;;;5032987;28;19939;-54
2022/06/23 06:17:30;;;;;;;;;;;20.80;83.00;;;;;;5035389;28;19915;-50
2022/06/23 06:20:21;;;;;;;;;;;20.80;83.60;;;;;;5035649;28;19911;-54
2022/06/23 06:23:11;;;;;;;;;;;20.90;83.00;;;;;;5037055;28;19970;-47
2022/06/23 06:25:56;;;;;;;;;;;21.00;82.70;;;;;;5032439;28;20005;-45
2022/06/23 06:28:41;;;;;;;;;;;21.00;82.50;;;;;;5034352;28;19921;-50
2022/06/23 06:31:28;;;;;;;;;;;21.20;81.80;;;;;;5022321;28;19951;-48
2022/06/23 06:34:16;;;;;;;;;;;21.20;81.90;;;;;;5036573;28;19911;-53
2022/06/23 06:37:00;;;;;;;;;;;21.30;81.50;;;;;;5032256;28;19916;-51
2022/06/23 06:39:47;;;;;;;;;;;21.40;81.20;;;;;;5033638;28;19979;-49
2022/06/23 06:42:41;;;;;;;;;;;21.50;81.40;;;;;;5045443;28;19967;-50
2022/06/23 06:45:26;;;;;;;;;;;21.60;81.50;;;;;;5053198;28;20330;-50
2022/06/23 06:48:32;;;;;;;;;;;21.50;81.50;;;;;;5032149;28;20407;-47
2022/06/23 06:51:21;;;;;;;;;;;21.60;81.60;;;;;;5043669;28;19932;-54
2022/06/23 06:54:20;;;;;;;;;;;21.70;81.70;;;;;;5035755;28;20392;-53
2022/06/23 06:57:05;;;;;;;;;;;21.80;82.00;;;;;;5018350;28;19933;-46
2022/06/23 06:59:58;;;;;;;;;;;21.90;81.10;;;;;;5035653;28;20384;-48
2022/06/23 07:02:46;;;;;;;;;;;21.90;81.20;;;;;;5028332;28;19916;-49
2022/06/23 07:05:29;;;;;;;;;;;22.00;80.60;;;;;;5037534;28;19994;-49
2022/06/23 07:08:19;;;;;;;;;;;22.20;80.00;;;;;;5034488;28;19935;-49
2022/06/23 07:11:08;;;;;;;;;;;22.20;79.60;;;;;;5037143;28;19920;-47
2022/06/23 07:14:05;;;;;;;;;;;22.30;79.10;;;;;;5030669;28;20347;-52
2022/06/23 07:17:01;;;;;;;;;;;22.50;78.70;;;;;;5033054;28;20035;-48
2022/06/23 07:19:58;;;;;;;;;;;22.60;78.30;;;;;;5030601;28;19920;-47
2022/06/23 07:22:48;;;;;;;;;;;22.70;78.10;;;;;;5036143;28;19915;-50
2022/06/23 07:25:35;;;;;;;;;;;22.90;77.80;;;;;;5032779;28;19967;-51
2022/06/23 07:28:38;;;;;;;;;;;23.00;77.20;;;;;;5022208;28;20327;-51
2022/06/23 07:31:27;;;;;;;;;;;23.10;76.60;;;;;;5029704;28;19915;-47
2022/06/23 07:34:12;;;;;;;;;;;23.10;76.40;;;;;;5050199;28;19955;-49
2022/06/23 07:36:58;;;;;;;;;;;23.20;76.40;;;;;;5019222;28;19924;-54
2022/06/23 07:39:42;;;;;;;;;;;23.20;76.20;;;;;;5029294;28;19962;-50
2022/06/23 07:42:45;;;;;;;;;;;23.30;76.80;;;;;;5032398;28;20284;-46
2022/06/23 07:45:32;;;;;;;;;;;23.30;75.40;;;;;;5032288;28;19920;-50
2022/06/23 07:48:16;;;;;;;;;;;23.40;75.40;;;;;;5032647;28;20079;-50
2022/06/23 07:51:02;;;;;;;;;;;23.60;75.10;;;;;;5034428;28;19977;-46
2022/06/23 07:53:49;;;;;;;;;;;23.70;74.80;;;;;;5033925;28;19924;-51
2022/06/23 07:56:35;;;;;;;;;;;23.70;74.30;;;;;;5030556;28;19920;-52
2022/06/23 07:59:22;;;;;;;;;;;23.80;74.50;;;;;;5032814;28;19912;-53
2022/06/23 08:02:14;;;;;;;;;;;24.00;74.40;;;;;;5032693;28;19915;-46
2022/06/23 08:05:03;;;;;;;;;;;24.10;74.50;;;;;;5030344;28;19959;-54
2022/06/23 08:07:48;;;;;;;;;;;24.20;74.00;;;;;;5032248;28;20589;-53
2022/06/23 08:10:33;;;;;;;;;;;24.30;73.90;;;;;;5034359;28;19912;-49
2022/06/23 08:13:20;;;;;;;;;;;24.30;73.60;;;;;;5037785;28;19919;-53
2022/06/23 08:19:17;;;;;;;;;;;24.50;73.00;;;;;;5038061;28;19962;-52
2022/06/23 08:22:02;;;;;;;;;;;24.50;73.10;;;;;;5033343;28;20425;-51
2022/06/23 08:24:48;;;;;;;;;;;24.40;73.10;;;;;;5033538;28;19975;-53
2022/06/23 08:27:33;;;;;;;;;;;24.60;72.30;;;;;;5030868;28;20439;-52
2022/06/23 08:30:17;;;;;;;;;;;24.70;70.50;;;;;;5031824;28;20279;-46
2022/06/23 08:33:02;;;;;;;;;;;24.70;70.40;;;;;;5028006;28;20709;-48
2022/06/23 08:35:49;;;;;;;;;;;24.90;69.80;;;;;;5029959;28;19960;-49
2022/06/23 08:38:54;;;;;;;;;;;25.00;69.30;;;;;;5013375;28;20059;-48
2022/06/23 08:41:45;;;;;;;;;;;25.10;69.40;;;;;;5021712;28;19916;-51
2022/06/23 08:44:29;;;;;;;;;;;25.20;69.00;;;;;;5036628;28;19920;-47
2022/06/23 08:47:13;;;;;;;;;;;25.20;68.10;;;;;;5036641;28;19916;-50
2022/06/23 08:50:13;;;;;;;;;;;25.20;68.00;;;;;;5035299;28;19959;-51
2022/06/23 08:53:04;;;;;;;;;;;25.20;67.60;;;;;;5037710;28;19931;-47
2022/06/23 08:56:04;;;;;;;;;;;25.40;67.60;;;;;;5035012;28;19916;-52
2022/06/23 08:58:51;;;;;;;;;;;25.50;67.70;;;;;;5033784;28;19925;-48
2022/06/23 09:01:44;;;;;;;;;;;25.70;67.60;;;;;;5027221;28;19924;-50
2022/06/23 09:04:48;;;;;;;;;;;25.90;67.30;;;;;;5031415;28;19916;-47
2022/06/23 09:07:48;;;;;;;;;;;26.00;66.70;;;;;;5032947;28;20005;-50
2022/06/23 09:10:50;;;;;;;;;;;26.10;65.90;;;;;;5015255;28;20272;-51
2022/06/23 09:13:56;;;;;;;;;;;26.20;65.60;;;;;;5016901;28;20383;-48
2022/06/23 09:17:12;;;;;;;;;;;26.30;65.60;;;;;;5024076;28;20021;-49
2022/06/23 09:20:02;;;;;;;;;;;26.50;64.20;;;;;;4999329;28;19955;-53
2022/06/23 09:23:08;;;;;;;;;;;26.70;63.00;;;;;;5024564;28;19916;-52
2022/06/23 09:25:54;;;;;;;;;;;26.80;61.50;;;;;;5021888;28;19967;-52
2022/06/23 09:28:39;;;;;;;;;;;26.80;59.80;;;;;;5027381;28;19975;-50
2022/06/23 09:31:26;;;;;;;;;;;26.70;59.40;;;;;;5031176;28;19916;-54
2022/06/23 09:34:12;;;;;;;;;;;26.90;59.70;;;;;;5032132;28;20004;-54
2022/06/23 09:36:56;;;;;;;;;;;27.00;59.40;;;;;;5052624;28;20103;-56
2022/06/23 09:40:00;;;;;;;;;;;27.00;59.30;;;;;;5053301;28;19911;-53
2022/06/23 09:43:03;;;;;;;;;;;27.00;59.50;;;;;;5049502;28;19951;-54
2022/06/23 09:45:58;;;;;;;;;;;27.10;59.40;;;;;;5033982;28;19919;-53
2022/06/23 09:49:10;;;;;;;;;;;27.10;58.80;;;;;;5033714;28;20360;-52
2022/06/23 09:51:57;;;;;;;;;;;27.20;57.40;;;;;;5031884;28;20012;-53
2022/06/23 09:54:47;;;;;;;;;;;27.30;57.40;;;;;;5033525;28;19912;-54
2022/06/23 09:57:43;;;;;;;;;;;27.30;57.70;;;;;;5029235;28;19924;-51
2022/06/23 10:00:31;;;;;;;;;;;27.40;56.90;;;;;;5031345;28;20376;-55
2022/06/23 10:03:21;;;;;;;;;;;27.40;56.50;;;;;;5035463;28;19912;-48
2022/06/23 10:06:05;;;;;;;;;;;27.50;56.60;;;;;;5029193;28;19920;-50
2022/06/23 10:08:53;;;;;;;;;;;27.60;56.00;;;;;;5030291;28;20420;-52
2022/06/23 10:11:56;;;;;;;;;;;27.60;55.20;;;;;;5027149;28;19920;-49
2022/06/23 10:14:45;;;;;;;;;;;27.60;55.20;;;;;;5025995;28;20543;-50
2022/06/23 10:17:48;;;;;;;;;;;27.50;55.10;;;;;;5027506;28;19924;-51
2022/06/23 10:20:45;;;;;;;;;;;27.50;54.70;;;;;;5031211;28;19912;-52
2022/06/23 10:23:29;;;;;;;;;;;27.60;54.40;;;;;;5031760;28;19931;-52
2022/06/23 10:26:13;;;;;;;;;;;27.70;53.10;;;;;;5011246;28;19916;-50
2022/06/23 10:28:57;;;;;;;;;;;27.80;53.60;;;;;;5011783;28;20396;-50
2022/06/23 10:32:03;;;;;;;;;;;27.90;52.00;;;;;;5012478;28;19916;-55
2022/06/23 10:34:50;;;;;;;;;;;28.00;52.40;;;;;;5031255;28;19916;-54
2022/06/23 10:37:45;;;;;;;;;;;28.00;51.30;;;;;;5031964;28;20016;-55
2022/06/23 10:40:35;;;;;;;;;;;27.80;51.10;;;;;;5031500;28;20023;-54
2022/06/23 10:43:19;;;;;;;;;;;27.70;51.40;;;;;;5031583;28;20422;-55
2022/06/23 10:46:09;;;;;;;;;;;27.70;51.80;;;;;;5029237;28;19966;-53
2022/06/23 10:48:58;;;;;;;;;;;27.90;52.00;;;;;;5029345;28;20386;-50
2022/06/23 10:51:51;;;;;;;;;;;28.10;51.60;;;;;;5028264;28;20327;-53
2022/06/23 10:54:42;;;;;;;;;;;28.20;51.10;;;;;;5024392;28;19911;-55
2022/06/23 10:57:38;;;;;;;;;;;28.30;51.80;;;;;;5050571;28;19962;-55
2022/06/23 11:00:40;;;;;;;;;;;28.40;51.90;;;;;;5036495;28;19913;-52
2022/06/23 11:03:43;;;;;;;;;;;28.30;51.20;;;;;;5035076;28;19912;-54
2022/06/23 11:06:42;;;;;;;;;;;28.30;51.20;;;;;;5034990;28;20444;-51
2022/06/23 11:09:41;;;;;;;;;;;28.30;51.80;;;;;;5034516;28;19928;-53
2022/06/23 11:12:35;;;;;;;;;;;28.40;51.40;;;;;;5034834;28;19912;-54
2022/06/23 11:15:35;;;;;;;;;;;28.50;51.10;;;;;;5032740;28;19912;-55
2022/06/23 11:18:22;;;;;;;;;;;28.50;51.50;;;;;;5031866;28;20426;-55
2022/06/23 11:21:23;;;;;;;;;;;28.50;52.00;;;;;;5038743;28;20414;-52
2022/06/23 11:24:14;;;;;;;;;;;28.50;51.90;;;;;;5049961;28;19916;-50
2022/06/23 11:27:04;;;;;;;;;;;28.40;51.50;;;;;;5034813;28;20144;-51
2022/06/23 11:29:51;;;;;;;;;;;28.60;51.70;;;;;;5033037;28;19920;-54
2022/06/23 11:32:40;;;;;;;;;;;28.40;50.90;;;;;;5029238;28;19915;-52
2022/06/23 11:35:24;;;;;;;;;;;28.50;50.90;;;;;;5018181;28;19970;-54
2022/06/23 11:38:20;;;;;;;;;;;28.70;51.20;;;;;;5025924;28;19919;-51
2022/06/23 11:41:18;;;;;;;;;;;28.60;51.60;;;;;;5014319;28;19912;-54
2022/06/23 11:44:13;;;;;;;;;;;28.70;51.70;;;;;;5027261;28;20395;-52
2022/06/23 11:47:13;;;;;;;;;;;28.80;51.20;;;;;;5033651;28;20391;-55
2022/06/23 11:50:10;;;;;;;;;;;28.60;50.60;;;;;;5040747;28;19919;-50
2022/06/23 11:53:07;;;;;;;;;;;28.50;51.00;;;;;;5033879;28;19958;-55
2022/06/23 11:56:11;;;;;;;;;;;28.60;50.60;;;;;;5033827;28;19912;-53
2022/06/23 11:59:02;;;;;;;;;;;28.70;51.30;;;;;;5013840;28;19912;-51
2022/06/23 12:01:46;;;;;;;;;;;28.80;51.40;;;;;;5032106;28;19916;-54
2022/06/23 12:04:30;;;;;;;;;;;29.00;51.20;;;;;;5026869;28;19936;-53
2022/06/23 12:07:34;;;;;;;;;;;29.20;50.50;;;;;;5029488;28;19958;-51
2022/06/23 12:10:21;;;;;;;;;;;29.30;50.50;;;;;;5032088;28;20315;-53
2022/06/23 12:13:05;;;;;;;;;;;29.20;49.30;;;;;;5031399;28;20450;-52
2022/06/23 12:15:50;;;;;;;;;;;29.10;48.70;;;;;;5023665;28;19944;-53
2022/06/23 12:18:38;;;;;;;;;;;29.00;49.40;;;;;;5030341;28;20422;-53
2022/06/23 12:21:29;;;;;;;;;;;29.10;48.50;;;;;;5033393;28;19958;-51
2022/06/23 12:24:33;;;;;;;;;;;29.10;49.00;;;;;;5033050;28;19963;-55
2022/06/23 12:27:22;;;;;;;;;;;29.40;49.10;;;;;;5032991;28;20353;-52
2022/06/23 12:30:06;;;;;;;;;;;29.60;48.40;;;;;;5033390;28;19912;-52
2022/06/23 12:32:56;;;;;;;;;;;29.70;48.50;;;;;;5033190;28;20050;-50
2022/06/23 12:35:46;;;;;;;;;;;29.80;47.70;;;;;;5029361;28;19915;-53
2022/06/23 12:38:34;;;;;;;;;;;29.90;47.50;;;;;;5030735;28;19932;-53
2022/06/23 12:41:24;;;;;;;;;;;30.10;48.20;;;;;;5032113;28;20302;-53
2022/06/23 12:44:27;;;;;;;;;;;30.20;47.80;;;;;;5032918;28;19915;-52
2022/06/23 12:47:17;;;;;;;;;;;30.20;46.50;;;;;;5032729;28;19975;-49
2022/06/23 12:50:20;;;;;;;;;;;30.10;47.20;;;;;;5032799;28;19912;-52
2022/06/23 12:53:04;;;;;;;;;;;30.10;46.90;;;;;;5032677;28;19996;-52
2022/06/23 12:56:07;;;;;;;;;;;30.00;47.00;;;;;;5032385;28;19962;-53
2022/06/23 12:58:57;;;;;;;;;;;30.20;47.10;;;;;;5032588;28;19959;-53
2022/06/23 13:01:41;;;;;;;;;;;30.40;47.00;;;;;;5032769;28;19916;-54
2022/06/23 13:04:28;;;;;;;;;;;30.70;47.10;;;;;;5032391;28;19955;-55
2022/06/23 13:07:18;;;;;;;;;;;30.70;46.60;;;;;;5017568;28;19912;-53
2022/06/23 13:10:02;;;;;;;;;;;30.70;46.50;;;;;;5032382;28;19915;-54
2022/06/23 13:12:47;;;;;;;;;;;30.70;46.30;;;;;;5032509;28;19992;-54
2022/06/23 13:15:39;;;;;;;;;;;31.00;46.60;;;;;;5031930;28;20371;-51
2022/06/23 13:18:23;;;;;;;;;;;31.10;46.80;;;;;;5032011;28;20078;-50
2022/06/23 13:21:15;;;;;;;;;;;31.30;46.70;;;;;;5032086;28;20380;-53
2022/06/23 13:24:03;;;;;;;;;;;31.40;46.60;;;;;;5029439;28;19992;-52
2022/06/23 13:26:56;;;;;;;;;;;31.40;45.50;;;;;;5029642;28;20315;-54
2022/06/23 13:29:44;;;;;;;;;;;31.40;46.20;;;;;;5030585;28;20338;-52
2022/06/23 13:32:31;;;;;;;;;;;31.60;46.20;;;;;;5034903;28;19955;-52
2022/06/23 13:35:18;;;;;;;;;;;31.80;45.70;;;;;;5034704;28;20421;-52
2022/06/23 13:38:09;;;;;;;;;;;31.50;45.30;;;;;;5033205;28;19920;-53
2022/06/23 13:41:08;;;;;;;;;;;31.50;44.50;;;;;;5035598;28;20054;-53
2022/06/23 13:44:02;;;;;;;;;;;31.40;44.80;;;;;;5033677;28;20388;-52
2022/06/23 13:46:55;;;;;;;;;;;31.40;44.80;;;;;;5023506;28;20268;-54
2022/06/23 13:49:48;;;;;;;;;;;31.30;44.50;;;;;;5031072;28;19925;-56
2022/06/23 13:52:43;;;;;;;;;;;31.60;45.20;;;;;;5019146;28;19920;-53
2022/06/23 13:55:39;;;;;;;;;;;31.80;44.50;;;;;;5026701;28;19916;-55
2022/06/23 13:58:42;;;;;;;;;;;32.00;43.60;;;;;;5033772;28;19912;-51
2022/06/23 14:01:26;;;;;;;;;;;32.20;44.00;;;;;;5034037;28;19912;-55
2022/06/23 14:04:29;;;;;;;;;;;32.30;44.10;;;;;;5033500;28;19951;-55
2022/06/23 14:07:20;;;;;;;;;;;32.50;43.90;;;;;;5034273;28;19912;-51
2022/06/23 14:10:07;;;;;;;;;;;32.60;43.60;;;;;;5035631;28;20284;-52
2022/06/23 14:13:14;;;;;;;;;;;32.80;43.30;;;;;;5034770;28;19935;-53
2022/06/23 14:16:04;;;;;;;;;;;33.00;44.10;;;;;;5004608;28;19963;-56
2022/06/23 14:18:56;;;;;;;;;;;33.10;43.20;;;;;;5014093;28;19916;-52
2022/06/23 14:21:45;;;;;;;;;;;33.20;43.50;;;;;;5035979;28;19951;-55
2022/06/23 14:24:33;;;;;;;;;;;33.40;43.10;;;;;;5034093;28;20552;-50
2022/06/23 14:27:23;;;;;;;;;;;33.40;42.70;;;;;;5033765;28;19999;-55
2022/06/23 14:30:13;;;;;;;;;;;33.30;42.40;;;;;;5033060;28;19974;-54
2022/06/23 14:33:03;;;;;;;;;;;33.20;42.20;;;;;;5033989;28;20171;-54
2022/06/23 14:35:55;;;;;;;;;;;32.90;43.10;;;;;;5033557;28;19992;-53
2022/06/23 14:38:49;;;;;;;;;;;32.80;42.80;;;;;;5018755;28;19971;-49
2022/06/23 14:41:33;;;;;;;;;;;33.10;44.30;;;;;;5018026;28;20374;-53
2022/06/23 14:44:17;;;;;;;;;;;33.40;44.20;;;;;;5033583;28;19938;-53
2022/06/23 14:47:09;;;;;;;;;;;33.60;42.90;;;;;;5034704;28;19912;-55
2022/06/23 14:50:02;;;;;;;;;;;33.60;43.00;;;;;;5018931;28;19912;-55
2022/06/23 14:52:55;;;;;;;;;;;33.40;43.30;;;;;;5036183;28;19959;-56
2022/06/23 14:55:51;;;;;;;;;;;33.40;42.90;;;;;;5036855;28;20430;-53
2022/06/23 14:58:43;;;;;;;;;;;33.40;42.80;;;;;;5036500;28;19960;-53
2022/06/23 15:01:41;;;;;;;;;;;33.40;44.10;;;;;;5036839;28;19916;-52
2022/06/23 15:04:25;;;;;;;;;;;33.60;43.50;;;;;;5035362;28;20379;-51
2022/06/23 15:07:16;;;;;;;;;;;34.00;44.70;;;;;;5033112;28;19916;-52
2022/06/23 15:10:20;;;;;;;;;;;34.20;44.10;;;;;;5019749;28;19912;-52
2022/06/23 15:13:04;;;;;;;;;;;34.00;41.70;;;;;;5017066;28;19912;-50
2022/06/23 15:15:59;;;;;;;;;;;33.90;42.90;;;;;;5035799;28;19912;-53
2022/06/23 15:18:48;;;;;;;;;;;33.80;42.00;;;;;;5016858;28;19963;-54
2022/06/23 15:24:44;;;;;;;;;;;33.80;43.80;;;;;;5034639;28;20440;-55
2022/06/23 15:27:32;;;;;;;;;;;33.90;42.40;;;;;;5038089;28;19916;-50
2022/06/23 15:30:19;;;;;;;;;;;34.20;45.40;;;;;;5034859;28;19915;-53
2022/06/23 15:33:12;;;;;;;;;;;34.50;42.70;;;;;;5030133;28;19920;-54
2022/06/23 15:36:00;;;;;;;;;;;34.40;41.80;;;;;;5028512;28;19993;-52
2022/06/23 15:38:51;;;;;;;;;;;34.40;41.80;;;;;;5019421;28;20084;-53
2022/06/23 15:41:55;;;;;;;;;;;34.60;42.20;;;;;;5033365;28;19927;-55
2022/06/23 15:44:45;;;;;;;;;;;34.80;41.80;;;;;;5031454;28;20319;-53
2022/06/23 15:47:29;;;;;;;;;;;35.00;42.20;;;;;;5031550;28;19911;-51
2022/06/23 15:50:24;;;;;;;;;;;34.90;40.20;;;;;;5032935;28;19916;-53
2022/06/23 15:53:18;;;;;;;;;;;35.00;42.40;;;;;;5032998;28;19916;-51
2022/06/23 15:56:13;;;;;;;;;;;35.30;41.00;;;;;;5027662;28;19939;-52
2022/06/23 15:59:03;;;;;;;;;;;35.20;40.00;;;;;;5033365;28;19967;-51
2022/06/23 16:01:56;;;;;;;;;;;35.00;40.00;;;;;;5034584;28;19964;-55
2022/06/23 16:04:47;;;;;;;;;;;35.00;39.90;;;;;;5027949;28;19929;-55
2022/06/23 16:07:32;;;;;;;;;;;35.20;39.80;;;;;;5028911;28;19932;-52
2022/06/23 16:10:29;;;;;;;;;;;35.20;39.10;;;;;;5035563;28;19963;-50
2022/06/23 16:13:22;;;;;;;;;;;35.40;39.90;;;;;;5035084;28;19911;-54
2022/06/23 16:16:08;;;;;;;;;;;35.70;38.70;;;;;;5035154;28;19919;-54
2022/06/23 16:18:54;;;;;;;;;;;35.60;39.30;;;;;;5030699;28;20383;-50
2022/06/23 16:21:40;;;;;;;;;;;35.80;39.00;;;;;;5031027;28;19916;-55
2022/06/23 16:24:29;;;;;;;;;;;35.80;37.80;;;;;;5015455;28;19912;-52
2022/06/23 16:27:25;;;;;;;;;;;36.00;37.80;;;;;;5015443;28;19912;-50
2022/06/23 16:30:22;;;;;;;;;;;36.30;38.60;;;;;;5015290;28;19952;-54
2022/06/23 16:33:19;;;;;;;;;;;36.70;37.90;;;;;;5021223;28;20284;-53
2022/06/23 16:36:17;;;;;;;;;;;37.20;38.60;;;;;;5034793;28;19912;-52
2022/06/23 16:39:01;;;;;;;;;;;38.00;38.00;;;;;;5034854;28;19920;-56
2022/06/23 16:41:51;;;;;;;;;;;39.10;37.50;;;;;;5034824;28;20272;-51
2022/06/23 16:44:47;;;;;;;;;;;39.90;36.30;;;;;;5034441;28;19915;-54
2022/06/23 16:47:38;;;;;;;;;;;40.70;35.80;;;;;;5035060;28;19971;-52
2022/06/23 16:50:49;;;;;;;;;;;41.70;35.30;;;;;;5035159;28;19911;-54
2022/06/23 16:53:42;;;;;;;;;;;42.70;35.00;;;;;;5018436;28;19950;-52